Time;durP1;ratioP1;P1;durP2;ratioP2;P2;SDS_P1;SDS_P2;PMS_P1;PMS_P2;Temp;Humidity;BMP_temperature;BMP_pressure;BME280_temperature;BME280_humidity;BME280_pressure;Samples;Min_cycle;Max_cycle;Signal;HPM_P1;HPM_P2
2023/03/20 00:01:34;;;;;;;57.43;33.43;;;3.60;99.90;;;;;;10444867;28;20285;-82
2023/03/20 00:06:36;;;;;;;53.83;32.57;;;3.50;99.90;;;;;;10445767;28;20972;-82
2023/03/20 00:11:47;;;;;;;50.33;31.33;;;3.30;99.90;;;;;;10439952;28;20231;-81
2023/03/20 00:16:50;;;;;;;37.60;25.47;;;3.20;99.90;;;;;;10431261;28;20236;-81
2023/03/20 00:21:54;;;;;;;46.90;29.00;;;3.40;99.90;;;;;;10444190;28;20213;-81
2023/03/20 00:26:56;;;;;;;50.70;28.63;;;3.50;99.90;;;;;;10417043;28;20258;-81
2023/03/20 00:31:59;;;;;;;41.57;24.10;;;3.50;99.90;;;;;;10398924;28;20263;-81
2023/03/20 00:37:02;;;;;;;35.50;22.97;;;3.70;99.90;;;;;;10418768;28;20240;-81
2023/03/20 00:42:06;;;;;;;53.50;35.57;;;3.90;99.90;;;;;;10432731;28;20240;-82
2023/03/20 00:47:15;;;;;;;46.60;28.90;;;3.80;99.90;;;;;;10430037;28;20268;-82
2023/03/20 00:52:19;;;;;;;36.07;21.20;;;3.70;99.90;;;;;;10410648;28;20236;-81
2023/03/20 00:57:27;;;;;;;59.83;36.17;;;3.80;99.90;;;;;;10391793;28;20277;-81
2023/03/20 01:02:30;;;;;;;66.53;40.47;;;3.70;99.90;;;;;;10402638;28;20286;-81
2023/03/20 01:07:34;;;;;;;63.07;39.43;;;3.50;99.90;;;;;;10430886;28;20643;-81
2023/03/20 01:12:42;;;;;;;80.50;46.03;;;3.40;99.90;;;;;;10390403;28;20299;-81
2023/03/20 01:17:45;;;;;;;53.13;33.03;;;3.20;99.90;;;;;;10391011;28;20237;-82
2023/03/20 01:22:48;;;;;;;45.40;27.83;;;3.50;99.90;;;;;;10400202;28;20229;-82
2023/03/20 01:27:53;;;;;;;67.77;41.23;;;3.50;99.90;;;;;;10420974;28;20307;-81
2023/03/20 01:33:00;;;;;;;91.23;48.63;;;3.40;99.90;;;;;;10414902;28;20574;-82
2023/03/20 01:38:11;;;;;;;95.67;53.40;;;3.20;99.90;;;;;;10428722;28;20304;-81
2023/03/20 01:43:17;;;;;;;95.07;51.70;;;3.10;99.90;;;;;;10430172;28;20239;-81
2023/03/20 01:48:46;;;;;;;93.67;50.40;;;3.20;99.90;;;;;;10413978;28;20265;-81
2023/03/20 01:53:55;;;;;;;70.37;41.77;;;3.50;99.90;;;;;;10395816;28;20288;-81
2023/03/20 01:59:23;;;;;;;56.40;33.07;;;3.50;99.90;;;;;;10429800;28;20293;-81
2023/03/20 02:04:32;;;;;;;63.63;37.17;;;3.70;99.90;;;;;;10420314;28;20317;-81
2023/03/20 02:09:42;;;;;;;50.60;30.10;;;3.70;99.90;;;;;;10429715;28;20257;-81
2023/03/20 02:14:52;;;;;;;60.43;37.23;;;4.10;99.90;;;;;;10430750;28;20240;-81
2023/03/20 02:20:40;;;;;;;64.80;40.77;;;4.10;99.90;;;;;;10429114;28;20780;-82
2023/03/20 02:26:15;;;;;;;55.47;34.17;;;4.40;99.90;;;;;;10422944;28;20239;-81
2023/03/20 02:31:37;;;;;;;72.30;44.40;;;4.40;99.90;;;;;;10408895;28;20231;-82
2023/03/20 02:37:04;;;;;;;64.83;40.77;;;4.50;99.90;;;;;;10421586;28;20211;-81
2023/03/20 02:42:20;;;;;;;74.20;41.93;;;4.50;99.90;;;;;;10436975;28;20215;-81
2023/03/20 02:47:30;;;;;;;69.73;41.60;;;4.60;99.90;;;;;;10415963;28;20801;-81
2023/03/20 02:53:07;;;;;;;77.13;44.00;;;4.70;99.90;;;;;;10409985;28;20238;-82
2023/03/20 02:58:29;;;;;;;72.47;40.63;;;4.70;99.90;;;;;;10408487;28;20246;-82
2023/03/20 03:03:55;;;;;;;93.63;54.43;;;5.00;99.90;;;;;;10427019;28;20233;-81
2023/03/20 03:09:08;;;;;;;89.43;52.37;;;5.20;99.90;;;;;;10436103;28;20269;-81
2023/03/20 03:14:28;;;;;;;93.33;50.43;;;5.40;99.90;;;;;;10400169;28;20299;-81
2023/03/20 03:19:32;;;;;;;83.83;48.03;;;5.30;99.90;;;;;;10408042;28;20542;-82
2023/03/20 03:24:38;;;;;;;85.17;49.67;;;5.20;99.90;;;;;;10403765;28;20235;-81
2023/03/20 03:29:56;;;;;;;97.03;53.63;;;5.20;99.90;;;;;;10431177;28;20269;-82
2023/03/20 03:35:01;;;;;;;83.60;48.87;;;5.30;99.90;;;;;;10419179;28;20304;-82
2023/03/20 03:40:16;;;;;;;93.10;52.17;;;5.40;99.90;;;;;;10435089;28;20272;-82
2023/03/20 03:45:32;;;;;;;84.73;49.90;;;5.50;99.90;;;;;;10435278;28;20237;-81
2023/03/20 03:50:47;;;;;;;82.17;48.23;;;5.70;99.90;;;;;;10435318;28;20268;-82
2023/03/20 03:55:56;;;;;;;95.97;57.50;;;5.90;99.90;;;;;;10451287;28;20789;-82
2023/03/20 04:01:02;;;;;;;72.73;41.10;;;6.00;99.90;;;;;;10434247;28;20233;-82
2023/03/20 04:06:07;;;;;;;96.00;55.80;;;6.20;99.90;;;;;;10430642;28;20238;-82
2023/03/20 04:11:19;;;;;;;90.63;54.77;;;6.30;99.90;;;;;;10415705;28;20242;-82
2023/03/20 04:16:24;;;;;;;86.60;51.50;;;6.40;99.90;;;;;;10412983;28;20798;-82
2023/03/20 04:21:28;;;;;;;96.93;57.80;;;6.60;99.90;;;;;;10409828;28;20296;-82
2023/03/20 04:26:30;;;;;;;95.73;57.93;;;6.40;99.90;;;;;;10406409;28;20777;-82
2023/03/20 04:31:33;;;;;;;98.73;59.57;;;6.20;99.90;;;;;;10417298;28;20233;-82
2023/03/20 04:36:46;;;;;;;81.97;47.30;;;6.10;99.90;;;;;;10445749;28;20291;-82
2023/03/20 04:41:51;;;;;;;94.50;56.83;;;6.30;99.90;;;;;;10404120;28;20320;-82
2023/03/20 04:46:54;;;;;;;89.87;55.40;;;6.40;99.90;;;;;;10414445;28;20270;-82
2023/03/20 04:51:57;;;;;;;90.70;54.87;;;6.20;99.90;;;;;;10425632;28;20283;-82
2023/03/20 04:57:11;;;;;;;90.30;56.17;;;6.20;99.90;;;;;;10431168;28;20670;-82
2023/03/20 05:02:16;;;;;;;89.17;55.10;;;6.20;99.90;;;;;;10416753;28;20250;-82
2023/03/20 05:07:19;;;;;;;92.33;55.23;;;6.10;99.90;;;;;;10431242;28;20261;-82
2023/03/20 05:12:34;;;;;;;96.37;58.43;;;6.10;99.90;;;;;;10416279;28;20305;-82
2023/03/20 05:17:57;;;;;;;86.37;54.13;;;6.30;99.90;;;;;;10429601;28;20244;-83
2023/03/20 05:23:25;;;;;;;88.13;51.80;;;6.20;99.90;;;;;;10396928;28;20237;-82
2023/03/20 05:28:54;;;;;;;90.37;53.13;;;6.20;99.90;;;;;;10423371;28;20258;-82
2023/03/20 05:34:16;;;;;;;93.67;57.30;;;6.20;99.90;;;;;;10410509;28;20246;-82
2023/03/20 05:39:32;;;;;;;92.23;57.27;;;6.20;99.90;;;;;;10399446;28;20241;-82
2023/03/20 05:44:43;;;;;;;71.60;36.67;;;6.30;99.90;;;;;;10424851;28;20222;-81
2023/03/20 05:50:18;;;;;;;77.50;46.17;;;6.70;99.90;;;;;;10257854;28;20265;-82
2023/03/20 05:55:27;;;;;;;89.60;57.33;;;7.20;99.90;;;;;;10255938;28;20234;-82
2023/03/20 06:00:38;;;;;;;89.87;55.70;;;7.10;99.90;;;;;;10252175;28;20317;-82
2023/03/20 06:05:59;;;;;;;94.23;60.20;;;6.90;99.90;;;;;;10244795;28;20245;-82
2023/03/20 06:11:03;;;;;;;92.97;59.90;;;6.90;99.90;;;;;;10255338;28;21108;-82
2023/03/20 06:16:10;;;;;;;92.73;59.17;;;6.80;99.90;;;;;;10258700;28;20233;-81
2023/03/20 06:21:14;;;;;;;99.23;60.67;;;6.70;99.90;;;;;;10250185;28;20238;-82
2023/03/20 06:26:16;;;;;;;98.50;59.37;;;6.80;99.90;;;;;;10391897;28;20241;-82
2023/03/20 06:31:39;;;;;;;93.77;57.37;;;6.90;99.90;;;;;;10419050;28;20273;-82
2023/03/20 06:36:47;;;;;;;90.57;55.77;;;7.00;99.90;;;;;;10428550;28;20230;-82
2023/03/20 06:41:55;;;;;;;101.43;58.77;;;7.00;99.90;;;;;;10420497;28;20262;-82
2023/03/20 06:47:00;;;;;;;91.50;57.60;;;7.10;99.90;;;;;;10445126;28;20270;-82
2023/03/20 06:52:03;;;;;;;94.87;55.93;;;7.10;99.90;;;;;;10419290;28;20229;-82
2023/03/20 06:57:07;;;;;;;90.03;56.40;;;7.20;99.90;;;;;;10395022;28;20294;-82
2023/03/20 07:02:10;;;;;;;94.67;55.53;;;7.40;99.90;;;;;;10412922;28;20685;-82
2023/03/20 07:07:13;;;;;;;90.77;54.83;;;7.50;99.90;;;;;;10435091;28;20284;-82
2023/03/20 07:12:18;;;;;;;85.60;53.03;;;7.60;99.90;;;;;;10436855;28;20242;-82
2023/03/20 07:17:22;;;;;;;86.73;55.00;;;7.70;99.90;;;;;;10436266;28;20235;-82
2023/03/20 07:22:27;;;;;;;94.17;60.43;;;7.90;99.90;;;;;;10419618;28;20966;-83
2023/03/20 07:27:49;;;;;;;105.70;64.03;;;8.00;99.90;;;;;;10398357;28;20259;-82
2023/03/20 07:32:55;;;;;;;70.63;42.43;;;8.10;99.90;;;;;;10403041;28;20287;-83
2023/03/20 07:38:03;;;;;;;75.20;44.90;;;8.20;99.90;;;;;;10414369;28;20239;-83
2023/03/20 07:43:07;;;;;;;69.57;42.23;;;8.60;99.90;;;;;;10411710;28;20239;-83
2023/03/20 07:48:30;;;;;;;68.33;44.17;;;8.80;99.90;;;;;;10419167;28;20277;-82
2023/03/20 07:53:33;;;;;;;77.47;48.97;;;8.80;99.90;;;;;;10428159;28;20250;-83
2023/03/20 07:58:36;;;;;;;75.57;46.27;;;8.60;99.90;;;;;;10449607;28;20292;-83
2023/03/20 08:03:38;;;;;;;66.53;41.30;;;8.60;99.90;;;;;;10434439;28;20234;-83
2023/03/20 08:08:41;;;;;;;71.33;44.80;;;8.70;99.90;;;;;;10452635;28;20254;-82
2023/03/20 08:13:45;;;;;;;71.03;45.13;;;8.80;99.90;;;;;;10434034;28;20210;-82
2023/03/20 08:18:49;;;;;;;81.13;49.93;;;8.80;99.90;;;;;;10433613;28;20686;-83
2023/03/20 08:23:52;;;;;;;75.20;46.93;;;9.00;99.90;;;;;;10434240;28;20316;-82
2023/03/20 08:28:54;;;;;;;89.17;60.43;;;9.30;99.90;;;;;;10433691;28;20920;-84
2023/03/20 08:33:57;;;;;;;84.63;55.07;;;9.50;99.90;;;;;;10441759;28;20246;-81
2023/03/20 08:39:00;;;;;;;90.97;54.17;;;9.80;99.90;;;;;;10431120;28;20754;-81
2023/03/20 08:44:02;;;;;;;76.90;48.63;;;10.10;99.90;;;;;;10412863;28;20291;-82
2023/03/20 08:49:06;;;;;;;75.80;49.83;;;10.40;99.90;;;;;;10449196;28;20729;-82
2023/03/20 08:54:08;;;;;;;60.90;42.57;;;10.70;99.90;;;;;;10432039;28;20226;-81
2023/03/20 08:59:11;;;;;;;51.87;34.27;;;11.00;99.90;;;;;;10410501;28;20300;-82
2023/03/20 09:04:14;;;;;;;54.50;34.70;;;11.10;99.90;;;;;;10458075;28;20221;-80
2023/03/20 09:09:19;;;;;;;38.93;26.57;;;11.40;99.90;;;;;;10444894;28;20250;-80
2023/03/20 09:14:22;;;;;;;56.90;38.50;;;11.70;99.90;;;;;;10448830;28;20243;-80
2023/03/20 09:19:25;;;;;;;42.30;32.10;;;11.90;99.90;;;;;;10438588;28;20641;-81
2023/03/20 09:24:30;;;;;;;46.47;31.63;;;12.10;99.90;;;;;;10392974;28;20313;-81
2023/03/20 09:29:32;;;;;;;42.17;25.60;;;12.40;99.90;;;;;;10411089;28;20309;-82
2023/03/20 09:34:35;;;;;;;40.43;26.23;;;12.80;99.90;;;;;;10429239;28;20614;-81
2023/03/20 09:39:37;;;;;;;45.27;29.27;;;13.20;99.90;;;;;;10468974;28;20234;-82
2023/03/20 09:45:04;;;;;;;39.83;26.53;;;13.40;99.90;;;;;;10438650;28;20284;-82
2023/03/20 09:50:24;;;;;;;37.13;26.43;;;13.80;99.90;;;;;;10446775;28;20258;-81
2023/03/20 09:55:34;;;;;;;36.83;23.30;;;13.90;99.90;;;;;;10448509;28;20311;-81
2023/03/20 10:00:41;;;;;;;40.70;25.23;;;14.10;99.90;;;;;;10431006;28;20261;-81
2023/03/20 10:06:01;;;;;;;38.70;24.87;;;14.30;99.90;;;;;;10429848;28;20238;-82
2023/03/20 10:11:49;;;;;;;40.57;29.40;;;14.40;99.90;;;;;;10430117;28;20308;-82
2023/03/20 10:17:19;;;;;;;49.77;35.07;;;14.40;99.90;;;;;;10448149;28;20231;-81
2023/03/20 10:22:46;;;;;;;41.53;29.60;;;14.10;99.90;;;;;;10439616;28;20289;-81
2023/03/20 10:27:56;;;;;;;43.07;29.93;;;14.00;99.90;;;;;;10407105;28;20297;-81
2023/03/20 10:33:10;;;;;;;34.47;24.07;;;14.30;99.90;;;;;;10386503;28;20227;-81
2023/03/20 10:38:13;;;;;;;41.97;28.77;;;14.50;99.90;;;;;;10429612;28;20226;-81
2023/03/20 10:43:20;;;;;;;30.93;21.27;;;14.70;99.90;;;;;;10440864;28;20231;-81
2023/03/20 10:49:07;;;;;;;36.57;26.87;;;14.80;99.90;;;;;;10442516;28;20324;-82
2023/03/20 10:54:31;;;;;;;32.87;23.50;;;14.80;99.90;;;;;;10282151;28;20320;-82
2023/03/20 10:59:49;;;;;;;35.47;24.60;;;14.90;99.90;;;;;;10283936;28;20847;-81
2023/03/20 11:04:52;;;;;;;32.07;23.53;;;15.00;99.90;;;;;;10268569;28;20282;-81
2023/03/20 11:10:03;;;;;;;36.13;28.00;;;15.10;99.90;;;;;;10270107;28;20319;-81
2023/03/20 11:15:33;;;;;;;33.30;23.47;;;15.20;99.90;;;;;;10258585;28;20767;-81
2023/03/20 11:20:51;;;;;;;35.33;25.20;;;15.10;99.90;;;;;;10254918;28;20304;-81
2023/03/20 11:25:56;;;;;;;26.97;18.70;;;15.20;99.90;;;;;;10340811;28;20304;-81
2023/03/20 11:31:03;;;;;;;30.63;21.57;;;15.30;99.90;;;;;;10412066;28;20255;-81
2023/03/20 11:36:20;;;;;;;32.40;21.67;;;15.50;99.90;;;;;;10413349;28;20223;-81
2023/03/20 11:41:26;;;;;;;25.90;20.40;;;15.70;99.00;;;;;;10433391;28;20234;-80
2023/03/20 11:46:29;;;;;;;23.13;18.33;;;15.80;99.20;;;;;;10409824;28;20679;-81
2023/03/20 11:51:34;;;;;;;23.57;17.33;;;15.90;98.50;;;;;;10415378;28;20622;-81
2023/03/20 11:56:37;;;;;;;27.57;18.20;;;16.00;97.50;;;;;;10430898;28;20253;-81
2023/03/20 12:01:54;;;;;;;26.67;18.20;;;16.00;95.60;;;;;;10429952;28;20262;-82
2023/03/20 12:07:11;;;;;;;23.10;13.90;;;16.10;95.00;;;;;;10418530;28;20675;-82
2023/03/20 12:12:23;;;;;;;28.87;17.83;;;16.00;94.40;;;;;;10442378;28;20246;-82
2023/03/20 12:17:56;;;;;;;24.83;19.00;;;16.10;94.10;;;;;;10429172;28;20697;-82
2023/03/20 12:23:05;;;;;;;23.03;17.00;;;16.00;94.10;;;;;;10393168;28;20239;-86
2023/03/20 12:28:28;;;;;;;22.53;17.43;;;15.70;95.10;;;;;;10392279;28;20235;-81
2023/03/20 12:33:40;;;;;;;17.50;10.27;;;15.30;96.60;;;;;;10392448;28;21033;-81
2023/03/20 12:38:44;;;;;;;21.70;13.83;;;15.50;97.10;;;;;;10409309;28;20258;-83
2023/03/20 12:44:08;;;;;;;18.77;14.13;;;15.60;96.90;;;;;;10420556;28;20243;-85
2023/03/20 12:49:11;;;;;;;18.73;13.67;;;15.60;97.20;;;;;;10367254;28;20314;-84
2023/03/20 12:54:57;;;;;;;22.47;16.67;;;15.50;96.80;;;;;;10378944;28;20284;-83
2023/03/20 13:00:17;;;;;;;21.70;17.73;;;15.50;97.10;;;;;;10395046;28;20248;-83
2023/03/20 13:05:44;;;;;;;16.10;11.40;;;14.90;98.00;;;;;;10402566;28;20231;-82
2023/03/20 13:10:57;;;;;;;13.10;11.00;;;14.70;99.40;;;;;;10406221;28;20247;-84
2023/03/20 13:16:23;;;;;;;11.40;9.03;;;15.00;99.40;;;;;;10407550;28;20243;-84
2023/03/20 13:21:33;;;;;;;13.10;11.70;;;15.20;98.60;;;;;;10407378;28;20277;-84
2023/03/20 13:26:47;;;;;;;13.80;10.17;;;15.40;97.70;;;;;;10408834;28;20240;-84
2023/03/20 13:32:19;;;;;;;14.80;11.53;;;15.40;97.20;;;;;;10408588;28;20304;-84
2023/03/20 13:37:36;;;;;;;12.70;9.63;;;15.40;96.90;;;;;;10408707;28;20739;-84
2023/03/20 13:42:51;;;;;;;14.37;9.93;;;15.50;96.40;;;;;;10407121;28;20242;-84
2023/03/20 13:47:54;;;;;;;14.70;10.27;;;15.50;96.10;;;;;;10434487;28;20262;-84
2023/03/20 13:53:25;;;;;;;7.30;6.03;;;15.50;95.80;;;;;;10386257;28;20263;-84
2023/03/20 13:58:44;;;;;;;7.43;6.10;;;15.60;95.20;;;;;;10320595;28;20237;-85
2023/03/20 14:03:48;;;;;;;6.17;5.07;;;15.80;95.20;;;;;;10304473;28;20236;-85
2023/03/20 14:08:54;;;;;;;6.17;5.20;;;16.10;94.70;;;;;;10320656;28;20265;-85
2023/03/20 14:14:11;;;;;;;8.20;5.60;;;16.30;94.60;;;;;;10303941;28;20231;-84
2023/03/20 14:19:19;;;;;;;7.67;6.57;;;16.30;94.00;;;;;;10281021;28;20242;-84
2023/03/20 14:24:23;;;;;;;9.17;7.80;;;16.40;92.50;;;;;;10295491;28;20241;-84
2023/03/20 14:29:29;;;;;;;9.10;7.43;;;16.40;91.90;;;;;;10252214;28;20409;-85
2023/03/20 14:34:46;;;;;;;6.93;5.90;;;16.40;91.80;;;;;;10337367;28;20239;-86
2023/03/20 14:39:52;;;;;;;5.20;3.63;;;16.40;92.80;;;;;;10374149;28;20248;-82
2023/03/20 14:45:15;;;;;;;5.00;4.23;;;16.60;93.60;;;;;;10386278;28;20290;-85
2023/03/20 14:50:23;;;;;;;11.87;7.83;;;16.60;92.20;;;;;;10414215;28;20725;-85
2023/03/20 14:55:26;;;;;;;19.83;15.03;;;16.70;91.30;;;;;;10413346;28;20230;-84
2023/03/20 15:00:43;;;;;;;17.87;14.80;;;16.30;91.40;;;;;;10381607;28;20239;-85
2023/03/20 15:05:46;;;;;;;23.30;16.90;;;14.90;96.30;;;;;;10387800;28;20223;-83
2023/03/20 15:10:53;;;;;;;17.27;11.00;;;14.30;99.30;;;;;;10389224;28;20251;-82
2023/03/20 15:15:57;;;;;;;16.57;10.67;;;14.20;99.90;;;;;;10403182;28;20227;-84
2023/03/20 15:20:59;;;;;;;18.60;11.10;;;15.00;98.10;;;;;;10396103;28;20242;-83
2023/03/20 15:26:02;;;;;;;24.53;16.73;;;15.20;97.60;;;;;;10412316;28;20241;-83
2023/03/20 15:31:05;;;;;;;26.17;15.60;;;15.00;98.80;;;;;;10392093;28;20348;-84
2023/03/20 15:36:25;;;;;;;12.37;8.47;;;14.80;99.30;;;;;;10410183;28;20696;-83
2023/03/20 15:41:32;;;;;;;12.17;7.33;;;14.50;99.90;;;;;;10379465;28;20291;-83
2023/03/20 15:46:35;;;;;;;20.40;13.90;;;14.40;99.90;;;;;;10391830;28;20259;-83
2023/03/20 15:51:37;;;;;;;18.27;11.80;;;14.50;99.90;;;;;;10406881;28;20247;-83
2023/03/20 15:56:44;;;;;;;12.70;10.10;;;14.70;98.60;;;;;;10392396;28;20253;-81
2023/03/20 16:01:51;;;;;;;17.33;10.93;;;14.60;97.60;;;;;;10409078;28;20277;-82
2023/03/20 16:06:59;;;;;;;9.23;6.93;;;14.70;97.50;;;;;;10409341;28;20239;-82
2023/03/20 16:12:02;;;;;;;13.17;8.50;;;14.90;97.80;;;;;;10408921;28;20254;-82
2023/03/20 16:17:05;;;;;;;12.33;9.07;;;15.10;96.00;;;;;;10408748;28;20232;-83
2023/03/20 16:22:29;;;;;;;9.83;5.80;;;14.90;95.80;;;;;;10391780;28;20316;-82
2023/03/20 16:27:33;;;;;;;8.60;5.37;;;14.60;96.60;;;;;;10392802;28;20242;-82
2023/03/20 16:32:40;;;;;;;11.17;7.83;;;14.50;98.00;;;;;;10409591;28;20648;-82
2023/03/20 16:37:51;;;;;;;10.90;7.63;;;14.50;97.30;;;;;;10392093;28;20300;-83
2023/03/20 16:42:56;;;;;;;9.30;6.90;;;14.40;97.70;;;;;;10409530;28;20257;-82
2023/03/20 16:48:10;;;;;;;10.17;7.60;;;14.60;97.10;;;;;;10409490;28;20263;-83
2023/03/20 16:53:22;;;;;;;12.23;8.43;;;14.60;97.30;;;;;;10390883;28;20255;-83
2023/03/20 16:58:29;;;;;;;9.37;6.57;;;14.30;97.60;;;;;;10408687;28;20227;-83
2023/03/20 17:03:43;;;;;;;19.30;12.07;;;14.20;98.30;;;;;;10390323;28;20236;-82
2023/03/20 17:08:49;;;;;;;10.97;6.80;;;14.00;97.80;;;;;;10424300;28;20251;-82
2023/03/20 17:13:52;;;;;;;11.00;7.00;;;14.10;98.40;;;;;;10415661;28;20454;-82
2023/03/20 17:19:00;;;;;;;15.77;9.80;;;14.20;98.70;;;;;;10432665;28;20235;-83
2023/03/20 17:24:03;;;;;;;7.47;6.17;;;14.10;98.40;;;;;;10422084;28;20264;-82
2023/03/20 17:29:06;;;;;;;11.37;7.10;;;14.00;99.40;;;;;;10430761;28;21000;-82
2023/03/20 17:34:13;;;;;;;8.10;6.43;;;14.00;99.30;;;;;;10448559;28;20528;-83
2023/03/20 17:39:18;;;;;;;11.30;6.17;;;13.90;99.70;;;;;;10431260;28;20299;-82
2023/03/20 17:44:21;;;;;;;11.27;8.27;;;13.90;99.60;;;;;;10430367;28;20668;-82
2023/03/20 17:49:26;;;;;;;11.83;8.30;;;14.00;99.20;;;;;;10448204;28;20262;-82
2023/03/20 17:54:29;;;;;;;17.97;11.33;;;13.90;99.10;;;;;;10430090;28;20611;-82
2023/03/20 17:59:31;;;;;;;10.93;6.80;;;14.00;98.40;;;;;;10448124;28;20272;-83
2023/03/20 18:04:34;;;;;;;10.17;6.80;;;13.70;99.30;;;;;;10419551;28;20625;-82
2023/03/20 18:09:38;;;;;;;14.37;9.40;;;13.80;99.70;;;;;;10456142;28;20292;-82
2023/03/20 18:14:41;;;;;;;11.30;7.87;;;13.70;99.20;;;;;;10421852;28;20230;-82
2023/03/20 18:19:44;;;;;;;8.93;5.60;;;13.50;99.90;;;;;;10455306;28;20657;-82
2023/03/20 18:24:47;;;;;;;15.40;8.60;;;13.50;99.90;;;;;;10455998;28;20625;-82
2023/03/20 18:29:50;;;;;;;11.10;7.20;;;13.60;99.90;;;;;;10421717;28;20254;-81
2023/03/20 18:34:53;;;;;;;8.07;6.23;;;13.70;99.90;;;;;;10455422;28;20230;-82
2023/03/20 18:39:59;;;;;;;11.43;7.33;;;13.70;99.90;;;;;;10454985;28;20289;-82
2023/03/20 18:45:02;;;;;;;10.03;8.20;;;13.60;99.50;;;;;;10455341;28;20266;-87
2023/03/20 18:50:12;;;;;;;15.00;8.43;;;13.50;99.40;;;;;;10436396;28;20252;-82
2023/03/20 18:55:15;;;;;;;18.53;12.17;;;13.30;99.30;;;;;;10380006;28;20241;-82
2023/03/20 19:00:20;;;;;;;16.30;8.30;;;13.50;97.80;;;;;;10381541;28;20227;-82
2023/03/20 19:05:25;;;;;;;11.90;5.70;;;13.90;98.00;;;;;;10367255;28;20237;-82
2023/03/20 19:10:36;;;;;;;12.87;7.70;;;14.10;98.30;;;;;;10363559;28;20290;-81
2023/03/20 19:15:40;;;;;;;17.80;7.73;;;14.60;97.30;;;;;;10371419;28;20703;-84
2023/03/20 19:20:50;;;;;;;15.30;6.63;;;14.40;97.40;;;;;;10372174;28;20290;-84
2023/03/20 19:25:54;;;;;;;11.37;6.67;;;14.40;97.70;;;;;;10359123;28;20699;-81
2023/03/20 19:30:56;;;;;;;14.07;7.37;;;14.30;98.10;;;;;;10383070;28;20312;-84
2023/03/20 19:35:59;;;;;;;12.97;6.47;;;14.30;98.70;;;;;;10392706;28;20285;-81
2023/03/20 19:41:07;;;;;;;9.93;6.43;;;14.40;99.00;;;;;;10390149;28;20297;-82
2023/03/20 19:46:13;;;;;;;16.50;9.60;;;14.40;99.10;;;;;;10385425;28;20293;-83
2023/03/20 19:51:30;;;;;;;16.07;9.83;;;14.40;98.80;;;;;;10406361;28;20332;-82
2023/03/20 19:56:33;;;;;;;11.97;7.43;;;14.20;99.20;;;;;;10364497;28;20675;-82
2023/03/20 20:01:36;;;;;;;17.83;9.13;;;14.10;99.80;;;;;;10419728;28;20640;-82
2023/03/20 20:06:38;;;;;;;11.53;6.63;;;14.00;99.90;;;;;;10360245;28;20687;-83
2023/03/20 20:11:43;;;;;;;12.93;5.73;;;14.00;99.90;;;;;;10373686;28;20313;-83
2023/03/20 20:16:47;;;;;;;11.63;6.53;;;13.80;99.90;;;;;;10372957;28;20232;-83
2023/03/20 20:21:50;;;;;;;11.50;8.40;;;13.80;99.90;;;;;;10361645;28;20240;-83
2023/03/20 20:27:13;;;;;;;8.90;5.83;;;13.70;99.90;;;;;;10384793;28;20309;-83
2023/03/20 20:32:22;;;;;;;7.87;5.27;;;14.10;99.90;;;;;;10387288;28;20330;-82
2023/03/20 20:37:25;;;;;;;19.37;11.03;;;15.10;99.90;;;;;;10386410;28;20241;-83
2023/03/20 20:42:50;;;;;;;15.07;10.20;;;14.50;97.80;;;;;;10397826;28;20234;-86
2023/03/20 20:47:54;;;;;;;19.10;11.43;;;13.70;98.90;;;;;;10385872;28;20308;-83
2023/03/20 20:52:58;;;;;;;17.77;11.73;;;13.10;99.90;;;;;;10365916;28;20263;-85
2023/03/20 20:58:02;;;;;;;12.67;9.00;;;12.40;99.90;;;;;;10034081;28;10000166;-85
2023/03/20 21:03:05;;;;;;;10.10;7.13;;;12.30;99.90;;;;;;10414040;28;20281;-83
2023/03/20 21:08:08;;;;;;;21.00;14.90;;;12.10;99.90;;;;;;10369172;28;20237;-82
2023/03/20 21:13:10;;;;;;;17.90;8.70;;;10.70;99.90;;;;;;10376667;28;20256;-81
2023/03/20 21:18:13;;;;;;;10.40;6.23;;;11.00;99.90;;;;;;10403211;28;20236;-81
2023/03/20 21:23:16;;;;;;;11.20;6.00;;;11.70;99.90;;;;;;10377802;28;20613;-81
2023/03/20 21:28:19;;;;;;;9.53;6.73;;;12.20;99.90;;;;;;10367062;28;20295;-81
2023/03/20 21:33:21;;;;;;;7.90;5.20;;;12.60;99.90;;;;;;10390015;28;20256;-82
2023/03/20 21:38:24;;;;;;;7.50;5.47;;;12.90;99.90;;;;;;10377320;28;20232;-81
2023/03/20 21:43:48;;;;;;;8.50;6.70;;;13.10;99.90;;;;;;10373163;28;20244;-81
2023/03/20 21:48:51;;;;;;;9.83;6.97;;;13.30;99.90;;;;;;10378715;28;20266;-81
2023/03/20 21:54:14;;;;;;;8.97;5.93;;;13.30;99.90;;;;;;10375940;28;20318;-81
2023/03/20 21:59:37;;;;;;;9.53;7.10;;;13.60;99.90;;;;;;10354331;28;20238;-80
2023/03/20 22:05:00;;;;;;;10.53;7.90;;;13.50;99.90;;;;;;10392187;28;20301;-82
2023/03/20 22:10:22;;;;;;;9.50;6.03;;;13.40;99.90;;;;;;10381859;28;20232;-81
2023/03/20 22:15:46;;;;;;;15.40;10.30;;;13.40;99.90;;;;;;10371231;28;20256;-82
2023/03/20 22:21:09;;;;;;;14.97;8.13;;;13.20;99.90;;;;;;10371131;28;20240;-81
2023/03/20 22:26:32;;;;;;;8.03;6.30;;;13.10;99.90;;;;;;10367216;28;20214;-81
2023/03/20 22:31:54;;;;;;;8.47;6.00;;;13.10;99.90;;;;;;10379814;28;20286;-81
2023/03/20 22:37:17;;;;;;;21.90;11.40;;;13.00;99.90;;;;;;10388715;28;20288;-80
2023/03/20 22:42:40;;;;;;;10.17;7.03;;;12.80;99.90;;;;;;10391758;28;20644;-81
2023/03/20 22:48:03;;;;;;;10.60;6.93;;;12.70;99.90;;;;;;10371870;28;20256;-81
2023/03/20 22:53:06;;;;;;;18.60;11.50;;;12.90;99.90;;;;;;10386400;28;20932;-81
2023/03/20 22:58:13;;;;;;;10.07;5.87;;;13.10;99.90;;;;;;10414582;28;20236;-82
2023/03/20 23:03:17;;;;;;;6.33;4.97;;;12.90;99.90;;;;;;10398408;28;20261;-84
2023/03/20 23:08:35;;;;;;;9.83;7.63;;;12.90;99.90;;;;;;10392800;28;20293;-84
2023/03/20 23:13:53;;;;;;;11.10;8.17;;;13.10;99.90;;;;;;10358980;28;20313;-81
2023/03/20 23:18:56;;;;;;;9.63;6.03;;;13.20;99.90;;;;;;10373356;28;20284;-81
2023/03/20 23:23:59;;;;;;;10.43;6.70;;;13.40;99.90;;;;;;10358511;28;20238;-82
2023/03/20 23:29:02;;;;;;;6.90;5.60;;;13.40;99.90;;;;;;10385473;28;20644;-82
2023/03/20 23:34:05;;;;;;;11.20;7.90;;;13.30;99.90;;;;;;10367071;28;20261;-82
2023/03/20 23:39:09;;;;;;;19.57;11.17;;;12.90;99.90;;;;;;10377356;28;20243;-82
2023/03/20 23:44:12;;;;;;;11.37;7.83;;;12.80;99.90;;;;;;10412097;28;20235;-82
2023/03/20 23:49:15;;;;;;;23.63;12.37;;;12.70;99.90;;;;;;10388376;28;20265;-82
2023/03/20 23:54:18;;;;;;;12.23;9.27;;;12.70;99.90;;;;;;10372513;28;20256;-82
2023/03/20 23:59:20;;;;;;;11.77;8.40;;;12.60;99.90;;;;;;10372313;28;20263;-82
